sensor_id;sensor_type;location;lat;lon;timestamp;pressure;altitude;pressure_sealevel;temperature;humidity
4012;BME280;2020;48.682;9.024;2023-02-08T00:00:22;98270.91;;;-3.83;65.73
4012;BME280;2020;48.682;9.024;2023-02-08T00:02:48;98268.41;;;-3.84;65.08
4012;BME280;2020;48.682;9.024;2023-02-08T00:05:14;98269.28;;;-3.87;65.36
4012;BME280;2020;48.682;9.024;2023-02-08T00:07:40;98260.81;;;-3.89;64.93
4012;BME280;2020;48.682;9.024;2023-02-08T00:10:05;98255.72;;;-3.89;65.61
4012;BME280;2020;48.682;9.024;2023-02-08T00:12:32;98259.25;;;-3.99;64.71
4012;BME280;2020;48.682;9.024;2023-02-08T00:14:58;98252.44;;;-3.97;65.28
4012;BME280;2020;48.682;9.024;2023-02-08T00:17:23;98255.91;;;-4.01;66.29
4012;BME280;2020;48.682;9.024;2023-02-08T00:19:48;98249.13;;;-4.02;66.07
4012;BME280;2020;48.682;9.024;2023-02-08T00:22:14;98244.09;;;-4.05;64.53
4012;BME280;2020;48.682;9.024;2023-02-08T00:24:39;98242.44;;;-4.09;65.21
4012;BME280;2020;48.682;9.024;2023-02-08T00:27:04;98248.44;;;-4.15;65.13
4012;BME280;2020;48.682;9.024;2023-02-08T00:29:30;98245.00;;;-4.09;66.88
4012;BME280;2020;48.682;9.024;2023-02-08T00:31:55;98240.75;;;-4.11;67.12
4012;BME280;2020;48.682;9.024;2023-02-08T00:34:20;98243.25;;;-4.07;66.91
4012;BME280;2020;48.682;9.024;2023-02-08T00:36:45;98242.28;;;-3.97;67.79
4012;BME280;2020;48.682;9.024;2023-02-08T00:39:11;98237.22;;;-4.00;68.53
4012;BME280;2020;48.682;9.024;2023-02-08T00:41:36;98235.59;;;-4.04;68.82
4012;BME280;2020;48.682;9.024;2023-02-08T00:44:01;98235.59;;;-4.04;68.40
4012;BME280;2020;48.682;9.024;2023-02-08T00:46:27;98235.63;;;-4.07;67.56
4012;BME280;2020;48.682;9.024;2023-02-08T00:48:52;98229.72;;;-4.11;67.85
4012;BME280;2020;48.682;9.024;2023-02-08T00:51:18;98230.59;;;-4.11;68.63
4012;BME280;2020;48.682;9.024;2023-02-08T00:53:44;98234.06;;;-4.18;68.87
4012;BME280;2020;48.682;9.024;2023-02-08T00:56:11;98232.47;;;-4.25;68.79
4012;BME280;2020;48.682;9.024;2023-02-08T00:58:37;98228.38;;;-4.37;69.45
4012;BME280;2020;48.682;9.024;2023-02-08T01:01:03;98239.47;;;-4.43;70.68
4012;BME280;2020;48.682;9.024;2023-02-08T01:03:29;98230.09;;;-4.39;70.15
4012;BME280;2020;48.682;9.024;2023-02-08T01:06:02;98243.84;;;-4.56;70.38
4012;BME280;2020;48.682;9.024;2023-02-08T01:08:28;98247.34;;;-4.63;71.00
4012;BME280;2020;48.682;9.024;2023-02-08T01:11:01;98252.44;;;-4.67;71.15
4012;BME280;2020;48.682;9.024;2023-02-08T01:13:27;98253.31;;;-4.68;71.42
4012;BME280;2020;48.682;9.024;2023-02-08T01:15:52;98250.84;;;-4.75;71.74
4012;BME280;2020;48.682;9.024;2023-02-08T01:18:17;98248.38;;;-4.84;72.40
4012;BME280;2020;48.682;9.024;2023-02-08T01:20:43;98250.94;;;-4.84;72.15
4012;BME280;2020;48.682;9.024;2023-02-08T01:23:08;98246.78;;;-4.90;72.03
4012;BME280;2020;48.682;9.024;2023-02-08T01:25:33;98250.16;;;-4.92;72.75
4012;BME280;2020;48.682;9.024;2023-02-08T01:27:59;98251.09;;;-4.98;72.24
4012;BME280;2020;48.682;9.024;2023-02-08T01:30:24;98245.94;;;-4.93;72.28
4012;BME280;2020;48.682;9.024;2023-02-08T01:32:49;98238.44;;;-5.06;72.40
4012;BME280;2020;48.682;9.024;2023-02-08T01:35:14;98233.34;;;-5.03;72.61
4012;BME280;2020;48.682;9.024;2023-02-08T01:37:40;98221.53;;;-5.07;72.76
4012;BME280;2020;48.682;9.024;2023-02-08T01:40:05;98218.13;;;-5.06;73.20
4012;BME280;2020;48.682;9.024;2023-02-08T01:42:31;98219.94;;;-5.17;74.10
4012;BME280;2020;48.682;9.024;2023-02-08T01:45:18;98229.28;;;-5.19;74.01
4012;BME280;2020;48.682;9.024;2023-02-08T01:47:49;98226.72;;;-5.19;73.18
4012;BME280;2020;48.682;9.024;2023-02-08T01:50:18;98229.31;;;-5.25;73.75
4012;BME280;2020;48.682;9.024;2023-02-08T01:52:45;98223.47;;;-5.34;73.37
4012;BME280;2020;48.682;9.024;2023-02-08T01:55:15;98213.34;;;-5.37;73.96
4012;BME280;2020;48.682;9.024;2023-02-08T01:57:42;98210.88;;;-5.48;73.89
4012;BME280;2020;48.682;9.024;2023-02-08T02:00:20;98210.03;;;-5.45;73.91
4012;BME280;2020;48.682;9.024;2023-02-08T02:02:47;98203.25;;;-5.43;73.94
4012;BME280;2020;48.682;9.024;2023-02-08T02:05:14;98208.41;;;-5.52;74.72
4012;BME280;2020;48.682;9.024;2023-02-08T02:07:40;98204.22;;;-5.56;74.83
4012;BME280;2020;48.682;9.024;2023-02-08T02:10:28;98203.31;;;-5.49;75.32
4012;BME280;2020;48.682;9.024;2023-02-08T02:12:56;98199.91;;;-5.48;75.16
4012;BME280;2020;48.682;9.024;2023-02-08T02:15:23;98196.59;;;-5.56;75.09
4012;BME280;2020;48.682;9.024;2023-02-08T02:17:48;98200.13;;;-5.73;75.62
4012;BME280;2020;48.682;9.024;2023-02-08T02:20:25;98206.88;;;-5.72;75.18
4012;BME280;2020;48.682;9.024;2023-02-08T02:26:11;98193.38;;;-5.74;74.91
4012;BME280;2020;48.682;9.024;2023-02-08T02:31:32;98195.13;;;-5.82;75.47
4012;BME280;2020;48.682;9.024;2023-02-08T02:39:40;98189.25;;;-5.88;76.02
4012;BME280;2020;48.682;9.024;2023-02-08T02:45:47;98180.03;;;-6.01;76.15
4012;BME280;2020;48.682;9.024;2023-02-08T02:48:47;98180.81;;;-5.94;75.94
4012;BME280;2020;48.682;9.024;2023-02-08T02:51:23;98188.53;;;-6.08;76.03
4012;BME280;2020;48.682;9.024;2023-02-08T02:54:01;98186.81;;;-6.03;76.54
4012;BME280;2020;48.682;9.024;2023-02-08T02:56:38;98184.34;;;-6.11;76.22
4012;BME280;2020;48.682;9.024;2023-02-08T02:59:06;98178.41;;;-6.08;76.76
4012;BME280;2020;48.682;9.024;2023-02-08T03:01:32;98184.31;;;-6.06;76.75
4012;BME280;2020;48.682;9.024;2023-02-08T03:03:58;98187.59;;;-5.98;77.15
4012;BME280;2020;48.682;9.024;2023-02-08T03:09:34;98184.34;;;-6.15;76.46
4012;BME280;2020;48.682;9.024;2023-02-08T03:12:21;98183.53;;;-6.18;76.99
4012;BME280;2020;48.682;9.024;2023-02-08T03:17:33;98180.22;;;-6.32;76.95
4012;BME280;2020;48.682;9.024;2023-02-08T03:20:07;98183.59;;;-6.30;76.84
4012;BME280;2020;48.682;9.024;2023-02-08T03:25:20;98189.56;;;-6.36;76.89
4012;BME280;2020;48.682;9.024;2023-02-08T03:27:48;98183.63;;;-6.33;77.91
4012;BME280;2020;48.682;9.024;2023-02-08T03:30:21;98193.81;;;-6.38;78.36
4012;BME280;2020;48.682;9.024;2023-02-08T03:33:20;98186.19;;;-6.35;77.69
4012;BME280;2020;48.682;9.024;2023-02-08T03:35:52;98190.38;;;-6.30;76.72
4012;BME280;2020;48.682;9.024;2023-02-08T03:38:35;98190.41;;;-6.38;77.47
4012;BME280;2020;48.682;9.024;2023-02-08T03:41:04;98184.50;;;-6.40;77.34
4012;BME280;2020;48.682;9.024;2023-02-08T03:43:35;98190.38;;;-6.35;77.32
4012;BME280;2020;48.682;9.024;2023-02-08T03:48:37;98190.41;;;-6.38;77.41
4012;BME280;2020;48.682;9.024;2023-02-08T03:51:05;98186.19;;;-6.38;77.52
4012;BME280;2020;48.682;9.024;2023-02-08T03:53:31;98176.91;;;-6.40;76.90
4012;BME280;2020;48.682;9.024;2023-02-08T03:56:06;98179.53;;;-6.54;77.02
4012;BME280;2020;48.682;9.024;2023-02-08T03:58:39;98181.22;;;-6.56;77.28
4012;BME280;2020;48.682;9.024;2023-02-08T04:01:12;98186.28;;;-6.55;76.96
4012;BME280;2020;48.682;9.024;2023-02-08T04:03:40;98175.28;;;-6.54;76.70
4012;BME280;2020;48.682;9.024;2023-02-08T04:06:05;98181.22;;;-6.58;76.63
4012;BME280;2020;48.682;9.024;2023-02-08T04:08:31;98171.97;;;-6.68;77.29
4012;BME280;2020;48.682;9.024;2023-02-08T04:10:56;98178.75;;;-6.70;77.14
4012;BME280;2020;48.682;9.024;2023-02-08T04:13:22;98174.53;;;-6.74;76.71
4012;BME280;2020;48.682;9.024;2023-02-08T04:15:47;98183.81;;;-6.73;77.29
4012;BME280;2020;48.682;9.024;2023-02-08T04:18:12;98170.28;;;-6.69;77.26
4012;BME280;2020;48.682;9.024;2023-02-08T04:20:38;98180.47;;;-6.79;77.92
4012;BME280;2020;48.682;9.024;2023-02-08T04:23:03;98180.47;;;-6.82;77.11
4012;BME280;2020;48.682;9.024;2023-02-08T04:25:28;98171.22;;;-6.86;77.22
4012;BME280;2020;48.682;9.024;2023-02-08T04:27:54;98166.97;;;-6.84;77.32
4012;BME280;2020;48.682;9.024;2023-02-08T04:30:19;98172.91;;;-6.85;76.64
4012;BME280;2020;48.682;9.024;2023-02-08T04:32:44;98172.03;;;-6.85;77.12
4012;BME280;2020;48.682;9.024;2023-02-08T04:35:09;98170.41;;;-6.94;76.55
4012;BME280;2020;48.682;9.024;2023-02-08T04:37:35;98172.09;;;-6.93;76.88
4012;BME280;2020;48.682;9.024;2023-02-08T04:40:00;98176.31;;;-6.95;77.03
4012;BME280;2020;48.682;9.024;2023-02-08T04:42:25;98174.59;;;-6.92;76.84
4012;BME280;2020;48.682;9.024;2023-02-08T04:44:50;98167.00;;;-6.87;76.05
4012;BME280;2020;48.682;9.024;2023-02-08T04:47:16;98163.63;;;-6.86;76.77
4012;BME280;2020;48.682;9.024;2023-02-08T04:49:41;98160.22;;;-6.85;77.06
4012;BME280;2020;48.682;9.024;2023-02-08T04:52:06;98158.56;;;-6.89;76.04
4012;BME280;2020;48.682;9.024;2023-02-08T04:54:32;98161.91;;;-6.84;76.53
4012;BME280;2020;48.682;9.024;2023-02-08T04:56:57;98155.97;;;-6.81;76.82
4012;BME280;2020;48.682;9.024;2023-02-08T04:59:22;98161.91;;;-6.84;76.27
4012;BME280;2020;48.682;9.024;2023-02-08T05:01:47;98156.88;;;-6.93;76.27
4012;BME280;2020;48.682;9.024;2023-02-08T05:04:13;98155.19;;;-6.91;76.42
4012;BME280;2020;48.682;9.024;2023-02-08T05:06:38;98151.81;;;-6.87;76.83
4012;BME280;2020;48.682;9.024;2023-02-08T05:09:07;98151.00;;;-7.01;77.22
4012;BME280;2020;48.682;9.024;2023-02-08T05:11:33;98145.09;;;-6.97;77.49
4012;BME280;2020;48.682;9.024;2023-02-08T05:13:58;98150.19;;;-7.03;76.80
4012;BME280;2020;48.682;9.024;2023-02-08T05:16:23;98141.75;;;-7.06;77.07
4012;BME280;2020;48.682;9.024;2023-02-08T05:18:49;98145.13;;;-7.07;76.39
4012;BME280;2020;48.682;9.024;2023-02-08T05:21:14;98144.25;;;-7.07;77.54
4012;BME280;2020;48.682;9.024;2023-02-08T05:23:40;98142.59;;;-7.07;77.25
4012;BME280;2020;48.682;9.024;2023-02-08T05:26:06;98147.66;;;-7.03;76.97
4012;BME280;2020;48.682;9.024;2023-02-08T05:28:32;98136.69;;;-7.09;76.99
4012;BME280;2020;48.682;9.024;2023-02-08T05:30:57;98137.56;;;-7.17;76.77
4012;BME280;2020;48.682;9.024;2023-02-08T05:33:22;98143.47;;;-7.17;76.83
4012;BME280;2020;48.682;9.024;2023-02-08T05:35:48;98145.16;;;-7.16;77.56
4012;BME280;2020;48.682;9.024;2023-02-08T05:38:13;98145.16;;;-7.22;76.92
4012;BME280;2020;48.682;9.024;2023-02-08T05:40:38;98146.00;;;-7.18;77.68
4012;BME280;2020;48.682;9.024;2023-02-08T05:43:03;98146.84;;;-7.15;77.79
4012;BME280;2020;48.682;9.024;2023-02-08T05:45:29;98143.47;;;-7.17;76.43
4012;BME280;2020;48.682;9.024;2023-02-08T05:47:54;98147.69;;;-7.19;76.59
4012;BME280;2020;48.682;9.024;2023-02-08T05:50:19;98151.88;;;-7.12;76.54
4012;BME280;2020;48.682;9.024;2023-02-08T05:52:45;98153.63;;;-7.26;76.81
4012;BME280;2020;48.682;9.024;2023-02-08T05:55:10;98151.06;;;-7.36;76.46
4012;BME280;2020;48.682;9.024;2023-02-08T05:57:35;98151.94;;;-7.37;76.20
4012;BME280;2020;48.682;9.024;2023-02-08T06:00:03;98155.31;;;-7.38;76.87
4012;BME280;2020;48.682;9.024;2023-02-08T06:02:28;98156.97;;;-7.34;76.38
4012;BME280;2020;48.682;9.024;2023-02-08T06:04:54;98160.34;;;-7.35;76.50
4012;BME280;2020;48.682;9.024;2023-02-08T06:07:19;98165.41;;;-7.35;77.49
4012;BME280;2020;48.682;9.024;2023-02-08T06:09:45;98162.06;;;-7.40;77.20
4012;BME280;2020;48.682;9.024;2023-02-08T06:12:10;98162.06;;;-7.38;77.22
4012;BME280;2020;48.682;9.024;2023-02-08T06:14:36;98167.13;;;-7.43;76.55
4012;BME280;2020;48.682;9.024;2023-02-08T06:17:01;98158.66;;;-7.36;76.61
4012;BME280;2020;48.682;9.024;2023-02-08T06:19:26;98167.09;;;-7.37;76.26
4012;BME280;2020;48.682;9.024;2023-02-08T06:21:51;98166.28;;;-7.34;75.74
4012;BME280;2020;48.682;9.024;2023-02-08T06:24:17;98160.34;;;-7.35;75.63
4012;BME280;2020;48.682;9.024;2023-02-08T06:26:43;98163.75;;;-7.42;74.98
4012;BME280;2020;48.682;9.024;2023-02-08T06:29:08;98167.09;;;-7.30;74.63
4012;BME280;2020;48.682;9.024;2023-02-08T06:31:34;98163.72;;;-7.36;73.86
4012;BME280;2020;48.682;9.024;2023-02-08T06:33:59;98167.09;;;-7.34;73.21
4012;BME280;2020;48.682;9.024;2023-02-08T06:36:24;98158.66;;;-7.36;74.75
4012;BME280;2020;48.682;9.024;2023-02-08T06:38:50;98165.41;;;-7.31;74.03
4012;BME280;2020;48.682;9.024;2023-02-08T06:41:15;98171.31;;;-7.39;74.99
4012;BME280;2020;48.682;9.024;2023-02-08T06:43:40;98175.53;;;-7.38;74.46
4012;BME280;2020;48.682;9.024;2023-02-08T06:46:06;98172.19;;;-7.27;74.71
4012;BME280;2020;48.682;9.024;2023-02-08T06:48:35;98178.91;;;-7.17;73.62
4012;BME280;2020;48.682;9.024;2023-02-08T06:51:01;98174.69;;;-7.23;73.50
4012;BME280;2020;48.682;9.024;2023-02-08T06:53:27;98168.78;;;-7.20;74.12
4012;BME280;2020;48.682;9.024;2023-02-08T06:55:52;98170.47;;;-7.16;73.85
4012;BME280;2020;48.682;9.024;2023-02-08T06:58:17;98172.13;;;-7.12;73.96
4012;BME280;2020;48.682;9.024;2023-02-08T07:00:43;98180.56;;;-7.14;74.38
4012;BME280;2020;48.682;9.024;2023-02-08T07:03:13;98175.50;;;-7.10;74.43
4012;BME280;2020;48.682;9.024;2023-02-08T07:05:39;98168.78;;;-7.17;75.28
4012;BME280;2020;48.682;9.024;2023-02-08T07:08:05;98178.03;;;-7.14;75.83
4012;BME280;2020;48.682;9.024;2023-02-08T07:10:31;98180.59;;;-7.13;74.76
4012;BME280;2020;48.682;9.024;2023-02-08T07:12:57;98180.50;;;-6.85;74.53
4012;BME280;2020;48.682;9.024;2023-02-08T07:15:22;98171.91;;;-6.53;73.16
4012;BME280;2020;48.682;9.024;2023-02-08T07:17:47;98175.19;;;-6.35;73.75
4012;BME280;2020;48.682;9.024;2023-02-08T07:20:12;98181.75;;;-6.03;72.17
4012;BME280;2020;48.682;9.024;2023-02-08T07:22:39;98185.78;;;-5.79;71.68
4012;BME280;2020;48.682;9.024;2023-02-08T07:25:07;98184.69;;;-5.48;71.37
4012;BME280;2020;48.682;9.024;2023-02-08T07:27:32;98182.78;;;-5.24;70.84
4012;BME280;2020;48.682;9.024;2023-02-08T07:29:58;98177.47;;;-5.03;69.41
4012;BME280;2020;48.682;9.024;2023-02-08T07:32:23;98180.53;;;-4.76;69.51
4012;BME280;2020;48.682;9.024;2023-02-08T07:34:48;98181.19;;;-4.57;68.09
4012;BME280;2020;48.682;9.024;2023-02-08T07:37:13;98181.09;;;-4.49;66.10
4012;BME280;2020;48.682;9.024;2023-02-08T07:39:39;98185.22;;;-4.42;66.35
4012;BME280;2020;48.682;9.024;2023-02-08T07:42:04;98179.97;;;-4.29;66.35
4012;BME280;2020;48.682;9.024;2023-02-08T07:44:31;98172.91;;;-4.08;66.40
4012;BME280;2020;48.682;9.024;2023-02-08T07:46:56;98177.03;;;-4.01;66.81
4012;BME280;2020;48.682;9.024;2023-02-08T07:49:21;98170.03;;;-3.87;66.62
4012;BME280;2020;48.682;9.024;2023-02-08T07:51:47;98176.72;;;-3.79;64.84
4012;BME280;2020;48.682;9.024;2023-02-08T07:54:12;98182.47;;;-3.68;64.26
4012;BME280;2020;48.682;9.024;2023-02-08T07:56:37;98175.13;;;-3.35;63.14
4012;BME280;2020;48.682;9.024;2023-02-08T07:59:03;98173.13;;;-3.17;61.24
4012;BME280;2020;48.682;9.024;2023-02-08T08:01:28;98184.91;;;-3.10;58.52
4012;BME280;2020;48.682;9.024;2023-02-08T08:03:53;98176.09;;;-2.94;58.54
4012;BME280;2020;48.682;9.024;2023-02-08T08:06:19;98176.00;;;-2.89;56.94
4012;BME280;2020;48.682;9.024;2023-02-08T08:08:45;98179.81;;;-3.10;55.83
4012;BME280;2020;48.682;9.024;2023-02-08T08:11:12;98168.91;;;-2.73;56.45
4012;BME280;2020;48.682;9.024;2023-02-08T08:13:38;98168.72;;;-2.63;54.36
4012;BME280;2020;48.682;9.024;2023-02-08T08:16:04;98167.91;;;-2.67;54.32
4012;BME280;2020;48.682;9.024;2023-02-08T08:18:29;98170.06;;;-2.47;55.03
4012;BME280;2020;48.682;9.024;2023-02-08T08:20:55;98166.56;;;-2.43;53.73
4012;BME280;2020;48.682;9.024;2023-02-08T08:23:21;98162.06;;;-2.30;53.06
4012;BME280;2020;48.682;9.024;2023-02-08T08:25:46;98162.88;;;-2.29;52.60
4012;BME280;2020;48.682;9.024;2023-02-08T08:28:11;98165.06;;;-2.12;53.89
4012;BME280;2020;48.682;9.024;2023-02-08T08:30:37;98165.03;;;-2.11;52.10
4012;BME280;2020;48.682;9.024;2023-02-08T08:33:02;98160.31;;;-1.90;53.25
4012;BME280;2020;48.682;9.024;2023-02-08T08:35:27;98167.97;;;-1.90;51.23
4012;BME280;2020;48.682;9.024;2023-02-08T08:37:53;98163.31;;;-1.72;51.08
4012;BME280;2020;48.682;9.024;2023-02-08T08:40:18;98165.63;;;-1.63;50.35
4012;BME280;2020;48.682;9.024;2023-02-08T08:42:43;98160.25;;;-1.87;49.26
4012;BME280;2020;48.682;9.024;2023-02-08T08:45:09;98154.25;;;-1.50;50.11
4012;BME280;2020;48.682;9.024;2023-02-08T08:47:35;98160.06;;;-1.44;48.84
4012;BME280;2020;48.682;9.024;2023-02-08T08:50:00;98155.91;;;-1.49;48.44
4012;BME280;2020;48.682;9.024;2023-02-08T08:52:25;98160.56;;;-1.65;48.07
4012;BME280;2020;48.682;9.024;2023-02-08T08:54:51;98155.88;;;-1.47;48.44
4012;BME280;2020;48.682;9.024;2023-02-08T08:57:16;98146.81;;;-1.26;49.42
4012;BME280;2020;48.682;9.024;2023-02-08T08:59:41;98145.34;;;-1.01;49.45
4012;BME280;2020;48.682;9.024;2023-02-08T09:02:11;98153.63;;;-0.93;47.52
4012;BME280;2020;48.682;9.024;2023-02-08T09:04:37;98147.16;;;-0.75;48.14
4012;BME280;2020;48.682;9.024;2023-02-08T09:07:02;98151.06;;;-0.62;47.49
4012;BME280;2020;48.682;9.024;2023-02-08T09:09:27;98147.31;;;-0.81;45.75
4012;BME280;2020;48.682;9.024;2023-02-08T09:11:52;98151.09;;;-0.63;47.66
4012;BME280;2020;48.682;9.024;2023-02-08T09:14:18;98143.00;;;-0.79;46.56
4012;BME280;2020;48.682;9.024;2023-02-08T09:16:43;98145.56;;;-0.79;47.68
4012;BME280;2020;48.682;9.024;2023-02-08T09:19:12;98149.25;;;-0.58;46.80
4012;BME280;2020;48.682;9.024;2023-02-08T09:21:38;98146.72;;;-0.30;47.19
4012;BME280;2020;48.682;9.024;2023-02-08T09:24:04;98149.72;;;-0.45;45.88
4012;BME280;2020;48.682;9.024;2023-02-08T09:26:30;98145.91;;;-0.32;46.29
4012;BME280;2020;48.682;9.024;2023-02-08T09:28:55;98148.41;;;-0.02;47.58
4012;BME280;2020;48.682;9.024;2023-02-08T09:31:26;98141.03;;;0.16;46.79
4012;BME280;2020;48.682;9.024;2023-02-08T09:33:55;98135.63;;;-0.02;46.24
4012;BME280;2020;48.682;9.024;2023-02-08T09:36:22;98143.19;;;0.02;47.05
4012;BME280;2020;48.682;9.024;2023-02-08T09:38:48;98143.50;;;-0.08;46.31
4012;BME280;2020;48.682;9.024;2023-02-08T09:41:28;98149.41;;;0.21;48.30
4012;BME280;2020;48.682;9.024;2023-02-08T09:44:03;98150.56;;;0.12;46.13
4012;BME280;2020;48.682;9.024;2023-02-08T09:46:37;98147.66;;;-0.05;46.04
4012;BME280;2020;48.682;9.024;2023-02-08T09:49:09;98143.50;;;0.19;47.12
4012;BME280;2020;48.682;9.024;2023-02-08T09:51:42;98150.47;;;0.41;45.29
4012;BME280;2020;48.682;9.024;2023-02-08T09:54:23;98140.13;;;0.44;45.63
4012;BME280;2020;48.682;9.024;2023-02-08T09:56:51;98142.00;;;0.39;45.72
4012;BME280;2020;48.682;9.024;2023-02-08T09:59:22;98136.84;;;0.66;45.35
4012;BME280;2020;48.682;9.024;2023-02-08T10:01:55;98137.72;;;0.65;45.86
4012;BME280;2020;48.682;9.024;2023-02-08T10:07:10;98135.22;;;0.38;46.56
4012;BME280;2020;48.682;9.024;2023-02-08T10:09:36;98134.91;;;0.47;46.43
4012;BME280;2020;48.682;9.024;2023-02-08T10:12:16;98132.94;;;0.55;46.92
4012;BME280;2020;48.682;9.024;2023-02-08T10:18:17;98125.66;;;1.41;48.76
4012;BME280;2020;48.682;9.024;2023-02-08T10:20:49;98122.50;;;1.57;50.96
4012;BME280;2020;48.682;9.024;2023-02-08T10:31:53;98124.88;;;1.39;45.97
4012;BME280;2020;48.682;9.024;2023-02-08T10:34:35;98122.44;;;1.81;46.21
4012;BME280;2020;48.682;9.024;2023-02-08T10:37:17;98121.78;;;1.75;44.33
4012;BME280;2020;48.682;9.024;2023-02-08T10:39:43;98114.16;;;1.52;45.97
4012;BME280;2020;48.682;9.024;2023-02-08T10:42:16;98108.91;;;1.55;43.70
4012;BME280;2020;48.682;9.024;2023-02-08T10:45:00;98112.38;;;1.76;46.21
4012;BME280;2020;48.682;9.024;2023-02-08T10:50:38;98107.78;;;2.27;45.80
4012;BME280;2020;48.682;9.024;2023-02-08T10:53:05;98116.53;;;2.01;46.80
4012;BME280;2020;48.682;9.024;2023-02-08T10:55:33;98104.13;;;1.90;48.78
4012;BME280;2020;48.682;9.024;2023-02-08T10:58:03;98103.44;;;2.07;46.18
4012;BME280;2020;48.682;9.024;2023-02-08T11:00:41;98097.06;;;1.95;45.51
4012;BME280;2020;48.682;9.024;2023-02-08T11:03:23;98094.81;;;2.51;50.96
4012;BME280;2020;48.682;9.024;2023-02-08T11:05:49;98091.09;;;2.58;48.65
4012;BME280;2020;48.682;9.024;2023-02-08T11:08:25;98095.06;;;2.45;44.55
4012;BME280;2020;48.682;9.024;2023-02-08T11:13:25;98087.09;;;2.30;45.52
4012;BME280;2020;48.682;9.024;2023-02-08T11:15:56;98092.03;;;2.56;44.50
4012;BME280;2020;48.682;9.024;2023-02-08T11:18:28;98086.13;;;2.33;44.21
4012;BME280;2020;48.682;9.024;2023-02-08T11:21:08;98083.25;;;2.41;44.93
4012;BME280;2020;48.682;9.024;2023-02-08T11:23:40;98076.03;;;2.08;44.49
4012;BME280;2020;48.682;9.024;2023-02-08T11:26:14;98071.88;;;2.46;46.16
4012;BME280;2020;48.682;9.024;2023-02-08T11:28:40;98073.19;;;2.76;44.32
4012;BME280;2020;48.682;9.024;2023-02-08T11:31:19;98063.22;;;2.89;46.44
4012;BME280;2020;48.682;9.024;2023-02-08T11:33:57;98053.03;;;2.67;43.80
4012;BME280;2020;48.682;9.024;2023-02-08T11:36:23;98061.63;;;2.66;44.50
4012;BME280;2020;48.682;9.024;2023-02-08T11:38:48;98052.75;;;2.73;44.81
4012;BME280;2020;48.682;9.024;2023-02-08T11:41:16;98051.59;;;2.99;46.19
4012;BME280;2020;48.682;9.024;2023-02-08T11:46:21;98042.47;;;3.11;45.34
4012;BME280;2020;48.682;9.024;2023-02-08T11:48:49;98039.44;;;3.03;43.35
4012;BME280;2020;48.682;9.024;2023-02-08T11:51:35;98043.06;;;3.37;42.72
4012;BME280;2020;48.682;9.024;2023-02-08T11:54:02;98044.63;;;3.59;43.36
4012;BME280;2020;48.682;9.024;2023-02-08T11:56:30;98044.50;;;3.79;44.05
4012;BME280;2020;48.682;9.024;2023-02-08T12:01:35;98040.94;;;2.69;43.75
4012;BME280;2020;48.682;9.024;2023-02-08T12:04:02;98036.22;;;2.98;42.20
4012;BME280;2020;48.682;9.024;2023-02-08T12:11:54;98034.44;;;3.19;43.37
4012;BME280;2020;48.682;9.024;2023-02-08T12:14:36;98030.44;;;3.31;42.88
4012;BME280;2020;48.682;9.024;2023-02-08T12:17:22;98033.25;;;3.07;43.15
4012;BME280;2020;48.682;9.024;2023-02-08T12:22:27;98026.56;;;3.41;42.22
4012;BME280;2020;48.682;9.024;2023-02-08T12:27:57;98021.13;;;3.47;44.93
4012;BME280;2020;48.682;9.024;2023-02-08T12:30:41;98003.56;;;3.73;43.59
4012;BME280;2020;48.682;9.024;2023-02-08T12:36:18;98001.47;;;3.82;42.44
4012;BME280;2020;48.682;9.024;2023-02-08T12:38:55;98000.94;;;4.10;42.80
4012;BME280;2020;48.682;9.024;2023-02-08T12:42:00;97996.47;;;3.78;42.08
4012;BME280;2020;48.682;9.024;2023-02-08T12:44:57;98001.44;;;4.17;42.79
4012;BME280;2020;48.682;9.024;2023-02-08T12:47:54;97999.34;;;3.90;42.23
4012;BME280;2020;48.682;9.024;2023-02-08T12:50:32;97996.00;;;3.88;40.24
4012;BME280;2020;48.682;9.024;2023-02-08T12:53:11;97987.97;;;3.76;41.22
4012;BME280;2020;48.682;9.024;2023-02-08T12:55:41;97991.66;;;3.53;40.73
4012;BME280;2020;48.682;9.024;2023-02-08T12:58:30;97978.31;;;3.08;41.59
4012;BME280;2020;48.682;9.024;2023-02-08T13:01:06;97964.66;;;3.62;41.34
4012;BME280;2020;48.682;9.024;2023-02-08T13:03:42;97962.81;;;3.64;41.30
4012;BME280;2020;48.682;9.024;2023-02-08T13:06:15;97957.38;;;3.88;39.75
4012;BME280;2020;48.682;9.024;2023-02-08T13:08:47;97944.19;;;3.94;40.57
4012;BME280;2020;48.682;9.024;2023-02-08T13:11:31;97950.94;;;4.30;40.30
4012;BME280;2020;48.682;9.024;2023-02-08T13:14:11;97939.84;;;4.12;39.71
4012;BME280;2020;48.682;9.024;2023-02-08T13:16:42;97945.78;;;4.30;39.80
4012;BME280;2020;48.682;9.024;2023-02-08T13:21:57;97928.97;;;4.23;38.91
4012;BME280;2020;48.682;9.024;2023-02-08T13:24:40;97937.28;;;4.28;39.35
4012;BME280;2020;48.682;9.024;2023-02-08T13:27:10;97936.31;;;4.47;37.87
4012;BME280;2020;48.682;9.024;2023-02-08T13:29:38;97933.97;;;4.26;38.43
4012;BME280;2020;48.682;9.024;2023-02-08T13:32:34;97930.66;;;4.06;38.52
4012;BME280;2020;48.682;9.024;2023-02-08T13:37:38;97915.22;;;4.06;37.67
4012;BME280;2020;48.682;9.024;2023-02-08T13:40:06;97921.50;;;4.18;37.85
4012;BME280;2020;48.682;9.024;2023-02-08T13:42:39;97921.28;;;4.05;39.06
4012;BME280;2020;48.682;9.024;2023-02-08T13:45:08;97917.31;;;4.16;38.10
4012;BME280;2020;48.682;9.024;2023-02-08T13:47:47;97918.09;;;4.00;38.28
4012;BME280;2020;48.682;9.024;2023-02-08T13:50:42;97918.81;;;4.20;39.07
4012;BME280;2020;48.682;9.024;2023-02-08T13:53:08;97917.38;;;3.80;38.62
4012;BME280;2020;48.682;9.024;2023-02-08T14:03:21;97918.38;;;4.61;37.67
4012;BME280;2020;48.682;9.024;2023-02-08T14:05:49;97915.91;;;4.26;38.34
4012;BME280;2020;48.682;9.024;2023-02-08T14:11:34;97928.56;;;3.97;39.12
4012;BME280;2020;48.682;9.024;2023-02-08T14:16:43;97928.94;;;4.57;39.62
4012;BME280;2020;48.682;9.024;2023-02-08T14:21:43;97940.03;;;5.07;39.67
4012;BME280;2020;48.682;9.024;2023-02-08T14:24:20;97936.19;;;5.14;39.24
4012;BME280;2020;48.682;9.024;2023-02-08T14:26:46;97941.28;;;4.83;39.59
4012;BME280;2020;48.682;9.024;2023-02-08T14:29:20;97946.97;;;4.41;40.51
4012;BME280;2020;48.682;9.024;2023-02-08T14:31:47;97940.47;;;4.83;40.23
4012;BME280;2020;48.682;9.024;2023-02-08T14:34:34;97927.88;;;4.93;39.50
4012;BME280;2020;48.682;9.024;2023-02-08T14:37:25;97926.63;;;5.00;40.17
4012;BME280;2020;48.682;9.024;2023-02-08T14:45:35;97932.00;;;4.63;39.63
4012;BME280;2020;48.682;9.024;2023-02-08T14:48:06;97928.03;;;5.06;40.11
4012;BME280;2020;48.682;9.024;2023-02-08T14:50:47;97932.56;;;4.86;39.63
4012;BME280;2020;48.682;9.024;2023-02-08T14:53:23;97926.09;;;4.12;40.51
4012;BME280;2020;48.682;9.024;2023-02-08T14:59:12;97915.22;;;4.56;41.23
4012;BME280;2020;48.682;9.024;2023-02-08T15:01:41;97923.06;;;4.71;40.90
4012;BME280;2020;48.682;9.024;2023-02-08T15:04:07;97921.13;;;4.58;40.89
4012;BME280;2020;48.682;9.024;2023-02-08T15:09:05;97914.69;;;4.33;41.28
4012;BME280;2020;48.682;9.024;2023-02-08T15:11:32;97914.94;;;4.45;41.65
4012;BME280;2020;48.682;9.024;2023-02-08T15:14:00;97922.34;;;4.51;41.34